createdAt,value
2023-02-01T00:00:24.292Z,5.40
2023-02-01T00:02:51.131Z,5.42
2023-02-01T00:05:17.736Z,5.44
2023-02-01T00:07:48.275Z,5.42
2023-02-01T00:10:14.948Z,5.34
2023-02-01T00:12:41.563Z,5.30
2023-02-01T00:15:08.675Z,5.35
2023-02-01T00:17:35.268Z,5.30
2023-02-01T00:20:02.013Z,5.34
2023-02-01T00:22:28.674Z,5.43
2023-02-01T00:24:55.231Z,5.37
2023-02-01T00:27:22.341Z,5.43
2023-02-01T00:29:49.271Z,5.52
2023-02-01T00:32:15.909Z,5.55
2023-02-01T00:34:42.756Z,5.58
2023-02-01T00:37:09.332Z,5.53
2023-02-01T00:39:35.926Z,5.57
2023-02-01T00:42:03.290Z,5.48
2023-02-01T00:44:34.187Z,5.49
2023-02-01T00:47:01.387Z,5.45
2023-02-01T00:49:29.026Z,5.35
2023-02-01T00:51:55.710Z,5.33
2023-02-01T00:54:22.280Z,5.27
2023-02-01T00:56:48.868Z,5.35
2023-02-01T00:59:15.502Z,5.36
2023-02-01T01:01:42.168Z,5.28
2023-02-01T01:04:08.760Z,5.29
2023-02-01T01:06:35.651Z,5.27
2023-02-01T01:09:06.885Z,5.23
2023-02-01T01:11:36.840Z,5.22
2023-02-01T01:14:07.043Z,5.24
2023-02-01T01:16:33.909Z,5.21
2023-02-01T01:19:01.297Z,5.21
2023-02-01T01:21:28.263Z,5.22
2023-02-01T01:23:55.053Z,5.14
2023-02-01T01:26:24.316Z,5.21
2023-02-01T01:28:51.708Z,5.24
2023-02-01T01:31:20.457Z,5.25
2023-02-01T01:33:54.849Z,5.22
2023-02-01T01:36:22.411Z,5.28
2023-02-01T01:38:49.062Z,5.25
2023-02-01T01:41:22.175Z,5.30
2023-02-01T01:43:52.035Z,5.30
2023-02-01T01:46:24.716Z,5.29
2023-02-01T01:48:57.287Z,5.31
2023-02-01T01:51:25.823Z,5.34
2023-02-01T01:54:07.162Z,5.32
2023-02-01T01:56:35.063Z,5.36
2023-02-01T01:59:02.604Z,5.38
2023-02-01T02:01:29.368Z,5.44
2023-02-01T02:03:56.110Z,5.40
2023-02-01T02:06:31.790Z,5.46
2023-02-01T02:08:58.357Z,5.49
2023-02-01T02:11:25.414Z,5.50
2023-02-01T02:13:53.506Z,5.47
2023-02-01T02:16:28.433Z,5.46
2023-02-01T02:19:01.353Z,5.51
2023-02-01T02:22:05.878Z,5.45
2023-02-01T02:24:35.033Z,5.42
2023-02-01T02:27:25.930Z,5.47
2023-02-01T02:30:24.379Z,5.50
2023-02-01T02:33:02.418Z,5.49
2023-02-01T02:35:43.580Z,5.35
2023-02-01T02:38:16.204Z,5.34
2023-02-01T02:41:35.186Z,5.42
2023-02-01T02:44:28.601Z,5.49
2023-02-01T02:47:17.797Z,5.51
2023-02-01T02:50:14.116Z,5.55
2023-02-01T02:53:07.887Z,5.48
2023-02-01T02:55:37.812Z,5.57
2023-02-01T02:58:25.168Z,5.58
2023-02-01T03:01:11.385Z,5.58
2023-02-01T03:03:59.357Z,5.50
2023-02-01T03:06:26.554Z,5.51
2023-02-01T03:08:57.898Z,5.49
2023-02-01T03:11:45.285Z,5.55
2023-02-01T03:14:13.053Z,5.59
2023-02-01T03:16:53.046Z,5.62
2023-02-01T03:19:26.740Z,5.61
2023-02-01T03:22:02.621Z,5.60
2023-02-01T03:24:36.051Z,5.65
2023-02-01T03:27:17.882Z,5.54
2023-02-01T03:29:55.942Z,5.60
2023-02-01T03:32:23.692Z,5.62
2023-02-01T03:34:50.953Z,5.55
2023-02-01T03:37:23.773Z,5.65
2023-02-01T03:39:58.504Z,5.69
2023-02-01T03:42:30.028Z,5.72
2023-02-01T03:45:03.111Z,5.71
2023-02-01T03:47:33.536Z,5.76
2023-02-01T03:50:04.118Z,5.72
2023-02-01T03:52:35.715Z,5.68
2023-02-01T03:55:05.163Z,5.69
2023-02-01T03:57:34.878Z,5.73
2023-02-01T04:00:11.178Z,5.75
2023-02-01T04:02:44.837Z,5.79
2023-02-01T04:05:11.838Z,5.75
2023-02-01T04:07:45.428Z,5.86
2023-02-01T04:10:12.414Z,5.93
2023-02-01T04:12:38.945Z,5.87
2023-02-01T04:15:05.749Z,5.92
2023-02-01T04:17:32.323Z,5.96
2023-02-01T04:19:58.838Z,6.03
2023-02-01T04:22:25.468Z,6.03
2023-02-01T04:24:52.086Z,5.99
2023-02-01T04:27:19.088Z,6.00
2023-02-01T04:29:46.229Z,6.08
2023-02-01T04:32:12.777Z,6.07
2023-02-01T04:34:39.460Z,6.11
2023-02-01T04:37:06.077Z,6.14
2023-02-01T04:39:32.586Z,6.12
2023-02-01T04:41:59.150Z,6.16
2023-02-01T04:44:25.669Z,6.14
2023-02-01T04:46:52.470Z,6.20
2023-02-01T04:49:19.125Z,6.24
2023-02-01T04:51:45.659Z,6.18
2023-02-01T04:54:12.509Z,6.17
2023-02-01T04:56:39.178Z,6.27
2023-02-01T04:59:05.986Z,6.31
2023-02-01T05:01:32.709Z,6.33
2023-02-01T05:03:59.363Z,6.32
2023-02-01T05:06:25.940Z,6.25
2023-02-01T05:08:52.672Z,6.33
2023-02-01T05:11:37.740Z,6.33
2023-02-01T05:14:04.281Z,6.33
2023-02-01T05:16:30.822Z,6.34
2023-02-01T05:18:57.751Z,6.39
2023-02-01T05:21:24.409Z,6.39
2023-02-01T05:24:09.625Z,6.39
2023-02-01T05:26:40.172Z,6.38
2023-02-01T05:29:07.202Z,6.39
2023-02-01T05:31:34.021Z,6.47
2023-02-01T05:34:00.863Z,6.37
2023-02-01T05:36:27.635Z,6.40
2023-02-01T05:38:54.373Z,6.42
2023-02-01T05:41:21.046Z,6.46
2023-02-01T05:43:47.617Z,6.46
2023-02-01T05:46:14.619Z,6.43
2023-02-01T05:48:41.937Z,6.46
2023-02-01T05:51:09.199Z,6.43
2023-02-01T05:53:36.012Z,6.38
2023-02-01T05:56:02.564Z,6.30
2023-02-01T06:00:54.778Z,6.21
2023-02-01T06:03:21.487Z,6.24
2023-02-01T06:05:48.728Z,6.22
2023-02-01T06:08:15.551Z,6.26
2023-02-01T06:10:42.264Z,6.26
2023-02-01T06:13:09.732Z,6.27
2023-02-01T06:15:38.393Z,6.26
2023-02-01T06:18:05.309Z,6.25
2023-02-01T06:20:31.883Z,6.25
2023-02-01T06:22:58.666Z,6.24
2023-02-01T06:25:25.271Z,6.26
2023-02-01T06:27:51.833Z,6.19
2023-02-01T06:30:18.815Z,6.22
2023-02-01T06:32:54.592Z,6.20
2023-02-01T06:35:21.122Z,6.26
2023-02-01T06:37:47.918Z,6.23
2023-02-01T06:40:14.590Z,6.29
2023-02-01T06:42:41.252Z,6.19
2023-02-01T06:45:08.879Z,6.22
2023-02-01T06:47:35.448Z,6.18
2023-02-01T06:50:02.145Z,6.23
2023-02-01T06:52:28.728Z,6.23
2023-02-01T06:54:55.560Z,6.28
2023-02-01T06:57:22.149Z,6.25
2023-02-01T06:59:48.671Z,6.26
2023-02-01T07:02:15.287Z,6.27
2023-02-01T07:04:41.879Z,6.27
2023-02-01T07:07:08.393Z,6.22
2023-02-01T07:09:35.076Z,6.21
2023-02-01T07:12:01.561Z,6.25
2023-02-01T07:14:28.108Z,6.29
2023-02-01T07:16:54.684Z,6.26
2023-02-01T07:19:21.221Z,6.21
2023-02-01T07:21:47.793Z,6.21
2023-02-01T07:24:15.641Z,6.16
2023-02-01T07:26:42.313Z,6.21
2023-02-01T07:29:08.873Z,6.16
2023-02-01T07:31:35.478Z,6.11
2023-02-01T07:34:03.537Z,6.14
2023-02-01T07:36:30.241Z,6.12
2023-02-01T07:38:57.085Z,6.09
2023-02-01T07:41:23.623Z,6.12
2023-02-01T07:43:53.679Z,6.03
2023-02-01T07:46:20.260Z,5.97
2023-02-01T07:48:46.951Z,5.96
2023-02-01T07:51:15.367Z,5.81
2023-02-01T07:53:42.631Z,5.81
2023-02-01T07:56:14.922Z,5.70
2023-02-01T07:58:41.754Z,5.49
2023-02-01T08:01:25.169Z,5.46
2023-02-01T08:03:56.664Z,5.44
2023-02-01T08:06:24.490Z,5.28
2023-02-01T08:08:51.259Z,5.36
2023-02-01T08:11:18.341Z,5.34
2023-02-01T08:13:45.081Z,5.21
2023-02-01T08:16:12.771Z,5.16
2023-02-01T08:18:39.936Z,5.07
2023-02-01T08:21:12.704Z,5.15
2023-02-01T08:23:40.215Z,5.09
2023-02-01T08:26:13.529Z,5.11
2023-02-01T08:28:42.112Z,5.14
2023-02-01T08:31:16.732Z,5.13
2023-02-01T08:33:45.081Z,5.11
2023-02-01T08:36:12.070Z,5.05
2023-02-01T08:38:40.294Z,5.03
2023-02-01T08:41:08.984Z,5.00
2023-02-01T08:43:35.978Z,5.04
2023-02-01T08:46:03.351Z,4.96
2023-02-01T08:48:29.958Z,5.01
2023-02-01T08:50:56.621Z,5.01
2023-02-01T08:53:23.739Z,4.83
2023-02-01T08:55:50.330Z,4.81
2023-02-01T08:58:18.159Z,4.80
2023-02-01T09:00:45.912Z,4.75
2023-02-01T09:03:13.061Z,4.74
2023-02-01T09:05:49.035Z,4.67
2023-02-01T09:08:16.507Z,4.78
2023-02-01T09:10:43.534Z,4.89
2023-02-01T09:13:10.331Z,4.90
2023-02-01T09:15:38.227Z,4.96
2023-02-01T09:18:04.839Z,5.07
2023-02-01T09:20:31.406Z,5.15
2023-02-01T09:22:58.242Z,5.14
2023-02-01T09:25:25.049Z,5.06
2023-02-01T09:27:51.752Z,5.11
2023-02-01T09:30:18.398Z,5.25
2023-02-01T09:32:44.968Z,5.32
2023-02-01T09:35:11.629Z,5.43
2023-02-01T09:37:38.561Z,5.50
2023-02-01T09:40:05.746Z,5.59
2023-02-01T09:43:00.236Z,5.62
2023-02-01T09:45:35.376Z,5.72
2023-02-01T09:48:11.417Z,5.79
2023-02-01T09:50:40.727Z,5.88
2023-02-01T09:53:26.256Z,5.92
2023-02-01T09:55:56.932Z,5.88
2023-02-01T09:58:42.481Z,5.80
2023-02-01T10:01:22.712Z,5.89
2023-02-01T10:03:49.616Z,5.88
2023-02-01T10:06:16.345Z,5.95
2023-02-01T10:08:55.600Z,5.95
2023-02-01T10:11:31.550Z,5.94
2023-02-01T10:14:10.796Z,5.96
2023-02-01T10:16:43.856Z,5.92
2023-02-01T10:19:21.463Z,5.94
2023-02-01T10:21:56.032Z,5.85
2023-02-01T10:24:58.204Z,5.80
2023-02-01T10:27:30.449Z,5.81
2023-02-01T10:30:01.014Z,5.82
2023-02-01T10:32:32.857Z,5.86
2023-02-01T10:35:02.079Z,5.84
2023-02-01T10:37:35.559Z,5.86
2023-02-01T10:40:23.424Z,5.67
2023-02-01T10:42:52.887Z,5.63
2023-02-01T10:45:25.700Z,5.66
2023-02-01T10:47:54.291Z,5.63
2023-02-01T10:50:28.930Z,5.72
2023-02-01T10:52:59.708Z,5.80
2023-02-01T10:55:58.829Z,5.79
2023-02-01T10:58:32.952Z,5.81
2023-02-01T11:01:03.980Z,5.89
2023-02-01T11:03:40.349Z,5.95
2023-02-01T11:06:31.079Z,6.09
2023-02-01T11:09:09.513Z,6.19
2023-02-01T11:12:00.075Z,6.20
2023-02-01T11:14:26.532Z,6.25
2023-02-01T11:16:59.033Z,6.27
2023-02-01T11:19:25.602Z,6.34
2023-02-01T11:21:56.588Z,6.33
2023-02-01T11:24:23.964Z,6.38
2023-02-01T11:26:51.239Z,6.50
2023-02-01T11:29:21.368Z,6.65
2023-02-01T11:31:47.995Z,6.77
2023-02-01T11:34:17.402Z,6.95
2023-02-01T11:36:46.930Z,7.12
2023-02-01T11:39:13.393Z,7.20
2023-02-01T11:41:57.998Z,7.22
2023-02-01T11:44:38.732Z,7.25
2023-02-01T11:47:25.354Z,7.23
2023-02-01T11:49:56.966Z,7.31
2023-02-01T11:52:39.117Z,7.29
2023-02-01T11:55:17.481Z,7.27
2023-02-01T11:57:56.692Z,7.22
2023-02-01T12:00:46.859Z,7.25
2023-02-01T12:03:31.686Z,7.26
2023-02-01T12:06:01.458Z,7.34
2023-02-01T12:08:51.948Z,7.45
2023-02-01T12:11:38.582Z,7.55
2023-02-01T12:14:42.139Z,7.68
2023-02-01T12:17:44.266Z,7.77
2023-02-01T12:20:19.488Z,7.81
2023-02-01T12:22:54.978Z,7.92
2023-02-01T12:25:43.829Z,8.09
2023-02-01T12:28:36.489Z,8.09
2023-02-01T12:31:25.535Z,8.11
2023-02-01T12:34:12.678Z,8.05
2023-02-01T12:37:02.923Z,8.01
2023-02-01T12:39:40.121Z,8.02
2023-02-01T12:42:22.546Z,7.99
2023-02-01T12:44:55.398Z,7.88
2023-02-01T12:47:34.293Z,7.89
2023-02-01T12:50:17.525Z,7.84
2023-02-01T12:52:49.676Z,7.84
2023-02-01T12:55:43.738Z,7.83
2023-02-01T12:58:27.817Z,7.77
2023-02-01T13:01:22.908Z,7.74
2023-02-01T13:04:16.648Z,7.76
2023-02-01T13:06:48.437Z,7.64
2023-02-01T13:09:46.176Z,7.67
2023-02-01T13:12:22.940Z,7.68
2023-02-01T13:14:54.359Z,7.64
2023-02-01T13:17:25.643Z,7.73
2023-02-01T13:19:57.323Z,7.68
2023-02-01T13:22:42.211Z,7.76
2023-02-01T13:25:13.330Z,7.72
2023-02-01T13:27:39.875Z,7.67
2023-02-01T13:30:15.612Z,7.70
2023-02-01T13:33:51.659Z,7.70
2023-02-01T13:36:09.007Z,7.76
2023-02-01T13:39:07.275Z,7.70
2023-02-01T13:41:41.095Z,7.69
2023-02-01T13:44:16.926Z,7.71
2023-02-01T13:46:46.897Z,7.72
2023-02-01T13:49:26.754Z,7.69
2023-02-01T13:51:57.931Z,7.72
2023-02-01T13:54:40.085Z,7.74
2023-02-01T13:57:33.208Z,7.74
2023-02-01T14:00:35.153Z,7.74
2023-02-01T14:03:02.407Z,7.72
2023-02-01T14:05:35.402Z,7.75
2023-02-01T14:08:06.796Z,7.70
2023-02-01T14:10:45.227Z,7.65
2023-02-01T14:13:34.619Z,7.63
2023-02-01T14:16:04.142Z,7.53
2023-02-01T14:18:42.880Z,7.50
2023-02-01T14:21:37.327Z,7.49
2023-02-01T14:24:17.716Z,7.57
2023-02-01T14:26:46.219Z,7.62
2023-02-01T14:29:20.582Z,7.47
2023-02-01T14:31:56.039Z,7.50
2023-02-01T14:34:28.968Z,7.48
2023-02-01T14:37:00.708Z,7.47
2023-02-01T14:39:50.726Z,7.42
2023-02-01T14:42:27.669Z,7.42
2023-02-01T14:44:59.341Z,7.43
2023-02-01T14:47:29.844Z,7.44
2023-02-01T14:50:01.247Z,7.44
2023-02-01T14:52:34.849Z,7.55
2023-02-01T14:55:07.617Z,7.47
2023-02-01T14:57:36.190Z,7.50
2023-02-01T15:00:20.831Z,7.35
2023-02-01T15:02:50.790Z,7.36
2023-02-01T15:05:30.918Z,7.19
2023-02-01T15:08:06.608Z,7.09
2023-02-01T15:10:35.096Z,6.85
2023-02-01T15:13:01.661Z,6.85
2023-02-01T15:15:28.187Z,6.74
2023-02-01T15:17:56.812Z,6.64
2023-02-01T15:20:33.999Z,6.41
2023-02-01T15:23:17.653Z,6.21
2023-02-01T15:25:46.518Z,6.14
2023-02-01T15:28:16.002Z,6.02
2023-02-01T15:30:53.709Z,5.80
2023-02-01T15:33:21.124Z,5.81
2023-02-01T15:35:52.559Z,5.68
2023-02-01T15:38:31.741Z,5.60
2023-02-01T15:41:10.835Z,5.44
2023-02-01T15:43:55.551Z,5.35
2023-02-01T15:46:33.585Z,5.28
2023-02-01T15:49:00.360Z,5.29
2023-02-01T15:51:28.813Z,5.21
2023-02-01T15:53:59.083Z,5.16
2023-02-01T15:56:33.977Z,5.11
2023-02-01T15:59:02.921Z,5.13
2023-02-01T16:01:29.993Z,4.89
2023-02-01T16:04:13.632Z,4.81
2023-02-01T16:06:47.452Z,4.63
2023-02-01T16:09:19.241Z,4.63
2023-02-01T16:12:00.763Z,4.36
2023-02-01T16:14:27.679Z,4.39
2023-02-01T16:16:57.741Z,4.20
2023-02-01T16:19:28.767Z,4.13
2023-02-01T16:22:03.169Z,3.64
2023-02-01T16:24:29.679Z,3.70
2023-02-01T16:26:56.294Z,3.79
2023-02-01T16:29:22.847Z,3.80
2023-02-01T16:31:49.829Z,3.86
2023-02-01T16:34:20.878Z,3.81
2023-02-01T16:36:56.529Z,3.84
2023-02-01T16:39:23.055Z,3.84
2023-02-01T16:41:55.465Z,3.80
2023-02-01T16:44:22.105Z,3.77
2023-02-01T16:46:49.511Z,3.87
2023-02-01T16:49:20.442Z,3.80
2023-02-01T16:51:47.290Z,3.78
2023-02-01T16:54:13.828Z,3.88
2023-02-01T16:56:42.462Z,3.94
2023-02-01T16:59:09.562Z,4.00
2023-02-01T17:01:38.412Z,4.04
2023-02-01T17:04:04.968Z,4.06
2023-02-01T17:06:33.526Z,4.12
2023-02-01T17:09:00.711Z,4.17
2023-02-01T17:11:28.027Z,4.18
2023-02-01T17:13:56.902Z,4.10
2023-02-01T17:16:29.851Z,4.14
2023-02-01T17:19:11.547Z,4.24
2023-02-01T17:21:44.239Z,4.25
2023-02-01T17:24:16.629Z,4.29
2023-02-01T17:26:43.702Z,4.30
2023-02-01T17:29:10.543Z,4.25
2023-02-01T17:31:49.367Z,4.34
2023-02-01T17:34:19.224Z,4.33
2023-02-01T17:36:46.833Z,4.36
2023-02-01T17:39:37.501Z,4.39
2023-02-01T17:42:04.916Z,4.34
2023-02-01T17:44:34.136Z,4.42
2023-02-01T17:47:03.960Z,4.42
2023-02-01T17:49:30.526Z,4.39
2023-02-01T17:51:57.856Z,4.36
2023-02-01T17:54:26.269Z,4.36
2023-02-01T17:56:52.879Z,4.37
2023-02-01T17:59:19.417Z,4.41
2023-02-01T18:01:45.957Z,4.51
2023-02-01T18:04:13.403Z,4.55
2023-02-01T18:06:39.896Z,4.55
2023-02-01T18:09:07.420Z,4.57
2023-02-01T18:11:33.956Z,4.62
2023-02-01T18:14:00.481Z,4.64
2023-02-01T18:16:30.244Z,4.75
2023-02-01T18:19:02.291Z,4.78
2023-02-01T18:21:32.922Z,4.76
2023-02-01T18:24:03.730Z,4.84
2023-02-01T18:26:30.703Z,4.85
2023-02-01T18:28:57.238Z,4.78
2023-02-01T18:31:29.891Z,4.87
2023-02-01T18:33:57.770Z,4.84
2023-02-01T18:36:24.826Z,4.91
2023-02-01T18:38:51.320Z,4.91
2023-02-01T18:41:23.219Z,4.90
2023-02-01T18:43:51.340Z,4.93
2023-02-01T18:46:18.730Z,4.95
2023-02-01T18:48:45.321Z,5.03
2023-02-01T18:51:17.493Z,5.11
2023-02-01T18:53:44.123Z,4.98
2023-02-01T18:56:13.174Z,5.00
2023-02-01T18:58:40.051Z,5.03
2023-02-01T19:01:14.406Z,5.05
2023-02-01T19:03:42.711Z,5.03
2023-02-01T19:06:11.175Z,5.08
2023-02-01T19:08:37.860Z,5.07
2023-02-01T19:11:11.212Z,5.11
2023-02-01T19:13:38.643Z,5.11
2023-02-01T19:16:13.076Z,5.17
2023-02-01T19:18:40.012Z,5.17
2023-02-01T19:21:15.573Z,5.08
2023-02-01T19:23:42.539Z,5.11
2023-02-01T19:26:12.947Z,5.18
2023-02-01T19:28:39.489Z,5.18
2023-02-01T19:31:07.781Z,5.25
2023-02-01T19:33:35.104Z,5.27
2023-02-01T19:36:05.917Z,5.29
2023-02-01T19:38:33.353Z,5.27
2023-02-01T19:40:59.852Z,5.30
2023-02-01T19:43:26.445Z,5.23
2023-02-01T19:45:53.887Z,5.20
2023-02-01T19:48:20.567Z,5.23
2023-02-01T19:50:47.129Z,5.19
2023-02-01T19:53:13.651Z,5.25
2023-02-01T19:55:44.751Z,5.22
2023-02-01T19:58:11.143Z,5.16
2023-02-01T20:00:36.824Z,5.14
2023-02-01T20:03:03.629Z,5.14
2023-02-01T20:05:30.127Z,5.08
2023-02-01T20:07:56.681Z,5.07
2023-02-01T20:10:23.261Z,5.05
2023-02-01T20:12:49.784Z,5.05
2023-02-01T20:15:16.294Z,5.10
2023-02-01T20:17:42.896Z,5.03
2023-02-01T20:20:10.302Z,5.03
2023-02-01T20:22:36.815Z,4.96
2023-02-01T20:25:04.319Z,5.00
2023-02-01T20:27:31.679Z,5.06
2023-02-01T20:29:58.223Z,4.99
2023-02-01T20:32:24.723Z,4.99
2023-02-01T20:34:53.405Z,4.99
2023-02-01T20:37:21.184Z,4.97
2023-02-01T20:39:47.718Z,4.92
2023-02-01T20:42:14.283Z,4.96
2023-02-01T20:44:40.774Z,4.88
2023-02-01T20:47:07.258Z,4.90
2023-02-01T20:49:34.790Z,4.96
2023-02-01T20:52:01.280Z,4.94
2023-02-01T20:54:27.770Z,4.92
2023-02-01T20:56:54.267Z,4.87
2023-02-01T20:59:20.803Z,4.86
2023-02-01T21:01:53.444Z,4.93
2023-02-01T21:04:27.302Z,4.84
2023-02-01T21:06:55.066Z,4.80
2023-02-01T21:09:21.644Z,4.78
2023-02-01T21:11:48.175Z,4.76
2023-02-01T21:14:14.778Z,4.78
2023-02-01T21:16:41.312Z,4.69
2023-02-01T21:19:08.296Z,4.75
2023-02-01T21:21:42.002Z,4.72
2023-02-01T21:24:15.570Z,4.74
2023-02-01T21:26:42.388Z,4.64
2023-02-01T21:29:11.479Z,4.72
2023-02-01T21:31:38.903Z,4.53
2023-02-01T21:34:06.799Z,4.60
2023-02-01T21:36:37.183Z,4.58
2023-02-01T21:39:07.313Z,4.59
2023-02-01T21:42:04.193Z,4.60
2023-02-01T21:44:34.453Z,4.47
2023-02-01T21:47:02.925Z,4.52
2023-02-01T21:49:29.600Z,4.55
2023-02-01T21:51:56.394Z,4.59
2023-02-01T21:54:22.992Z,4.58
2023-02-01T21:56:49.555Z,4.63
2023-02-01T21:59:16.090Z,4.63
2023-02-01T22:01:42.854Z,4.61
2023-02-01T22:04:10.350Z,4.66
2023-02-01T22:06:41.929Z,4.65
2023-02-01T22:09:15.702Z,4.60
2023-02-01T22:11:42.189Z,4.68
2023-02-01T22:14:09.404Z,4.63
2023-02-01T22:16:35.982Z,4.67
2023-02-01T22:19:03.545Z,4.72
2023-02-01T22:21:30.359Z,4.68
2023-02-01T22:23:59.121Z,4.70
2023-02-01T22:26:26.792Z,4.72
2023-02-01T22:28:53.682Z,4.66
2023-02-01T22:31:20.585Z,4.72
2023-02-01T22:33:47.718Z,4.67
2023-02-01T22:36:16.822Z,4.72
2023-02-01T22:38:44.174Z,4.75
2023-02-01T22:41:10.963Z,4.76
2023-02-01T22:43:37.801Z,4.75
2023-02-01T22:46:11.257Z,4.78
2023-02-01T22:48:38.721Z,4.73
2023-02-01T22:51:06.696Z,4.78
2023-02-01T22:53:33.665Z,4.79
2023-02-01T22:56:01.505Z,4.74
2023-02-01T22:58:28.228Z,4.82
2023-02-01T23:00:54.852Z,4.87
2023-02-01T23:03:21.356Z,4.87
2023-02-01T23:05:48.609Z,4.90
2023-02-01T23:08:15.314Z,4.92
2023-02-01T23:10:41.787Z,4.86
2023-02-01T23:13:08.381Z,4.86
2023-02-01T23:15:34.918Z,4.92
2023-02-01T23:18:01.577Z,4.90
2023-02-01T23:20:28.695Z,4.85
2023-02-01T23:22:55.190Z,4.91
2023-02-01T23:25:21.869Z,4.93
2023-02-01T23:27:49.290Z,4.88
2023-02-01T23:30:16.761Z,4.91
2023-02-01T23:32:43.589Z,4.92
2023-02-01T23:35:10.166Z,4.95
2023-02-01T23:37:36.671Z,4.94
2023-02-01T23:40:03.981Z,4.93
2023-02-01T23:42:30.508Z,5.07
2023-02-01T23:44:56.969Z,5.10
2023-02-01T23:47:23.803Z,5.14
2023-02-01T23:49:50.348Z,5.14
2023-02-01T23:52:16.880Z,5.16
2023-02-01T23:54:43.459Z,5.22
2023-02-01T23:57:09.981Z,5.18
2023-02-01T23:59:36.541Z,5.22
